createdAt,value
2018-07-12T00:01:51.473Z,99686.78
2018-07-12T00:04:18.881Z,99693.83
2018-07-12T00:06:46.277Z,99684.33
2018-07-12T00:09:13.678Z,99684.83
2018-07-12T00:11:41.066Z,99690.00
2018-07-12T00:14:08.501Z,99693.48
2018-07-12T00:16:35.905Z,99694.29
2018-07-12T00:19:03.306Z,99688.91
2018-07-12T00:21:30.719Z,99686.20
2018-07-12T00:23:58.180Z,99683.48
2018-07-12T00:26:25.617Z,99681.84
2018-07-12T00:28:53.010Z,99687.33
2018-07-12T00:31:20.402Z,99685.14
2018-07-12T00:33:47.911Z,99688.09
2018-07-12T00:36:15.314Z,99685.92
2018-07-12T00:38:42.762Z,99691.38
2018-07-12T00:41:10.173Z,99691.88
2018-07-12T00:43:37.570Z,99694.86
2018-07-12T00:46:04.986Z,99692.14
2018-07-12T00:48:32.392Z,99695.66
2018-07-12T00:50:59.843Z,99695.13
2018-07-12T00:53:27.244Z,99696.50
2018-07-12T00:55:54.645Z,99702.48
2018-07-12T00:58:22.050Z,99697.59
2018-07-12T01:00:49.522Z,99694.88
2018-07-12T01:03:16.964Z,99700.81
2018-07-12T01:05:44.372Z,99695.63
2018-07-12T01:08:11.792Z,99702.66
2018-07-12T01:10:39.198Z,99694.50
2018-07-12T01:13:06.617Z,99702.36
2018-07-12T01:15:34.064Z,99700.78
2018-07-12T01:18:01.458Z,99703.55
2018-07-12T01:20:28.858Z,99710.34
2018-07-12T01:22:56.253Z,99707.09
2018-07-12T01:25:23.652Z,99698.94
2018-07-12T01:27:51.083Z,99699.48
2018-07-12T01:30:18.489Z,99704.91
2018-07-12T01:32:45.885Z,99707.34
2018-07-12T01:35:13.363Z,99709.80
2018-07-12T01:37:40.828Z,99710.59
2018-07-12T01:40:08.239Z,99711.91
2018-07-12T01:42:35.674Z,99707.27
2018-07-12T01:45:03.073Z,99705.89
2018-07-12T01:47:30.497Z,99701.02
2018-07-12T01:49:57.913Z,99700.98
2018-07-12T01:52:25.331Z,99702.09
2018-07-12T01:54:52.771Z,99702.66
2018-07-12T01:57:20.222Z,99696.36
2018-07-12T01:59:47.691Z,99706.88
2018-07-12T02:02:15.131Z,99697.41
2018-07-12T02:04:42.552Z,99708.36
2018-07-12T02:07:09.967Z,99705.84
2018-07-12T02:09:37.382Z,99705.59
2018-07-12T02:12:04.835Z,99697.20
2018-07-12T02:14:32.250Z,99699.70
2018-07-12T02:16:59.717Z,99701.50
2018-07-12T02:19:27.142Z,99701.18
2018-07-12T02:21:54.544Z,99700.84
2018-07-12T02:24:21.969Z,99693.50
2018-07-12T02:26:49.376Z,99710.94
2018-07-12T02:29:16.782Z,99713.13
2018-07-12T02:31:44.231Z,99710.97
2018-07-12T02:34:11.649Z,99712.59
2018-07-12T02:36:39.041Z,99708.28
2018-07-12T02:39:06.444Z,99711.27
2018-07-12T02:41:33.833Z,99706.97
2018-07-12T02:44:01.262Z,99706.97
2018-07-12T02:46:28.657Z,99711.63
2018-07-12T02:48:56.117Z,99714.61
2018-07-12T02:51:23.518Z,99707.30
2018-07-12T02:53:50.910Z,99710.56
2018-07-12T02:56:18.397Z,99704.33
2018-07-12T02:58:45.796Z,99705.59
2018-07-12T03:01:13.247Z,99708.08
2018-07-12T03:03:40.650Z,99709.72
2018-07-12T03:06:08.049Z,99714.38
2018-07-12T03:08:35.491Z,99715.19
2018-07-12T03:11:02.900Z,99719.53
2018-07-12T03:13:30.493Z,99715.21
2018-07-12T03:15:57.898Z,99718.72
2018-07-12T03:18:25.285Z,99712.20
2018-07-12T03:20:52.726Z,99714.84
2018-07-12T03:23:20.126Z,99714.00
2018-07-12T03:25:47.526Z,99722.95
2018-07-12T03:28:14.956Z,99719.16
2018-07-12T03:30:42.364Z,99720.80
2018-07-12T03:33:09.817Z,99717.59
2018-07-12T03:35:37.211Z,99712.48
2018-07-12T03:38:04.630Z,99713.55
2018-07-12T03:40:32.109Z,99714.92
2018-07-12T03:42:59.486Z,99717.38
2018-07-12T03:47:54.001Z,99708.28
2018-07-12T03:50:21.398Z,99713.05
2018-07-12T03:52:48.788Z,99718.62
2018-07-12T03:55:16.209Z,99721.53
2018-07-12T03:57:43.659Z,99719.40
2018-07-12T04:00:11.053Z,99717.36
2018-07-12T04:02:38.470Z,99716.79
2018-07-12T04:05:05.905Z,99724.02
2018-07-12T04:07:33.309Z,99726.40
2018-07-12T04:10:00.758Z,99721.83
2018-07-12T04:12:28.162Z,99722.02
2018-07-12T04:14:55.553Z,99711.87
2018-07-12T04:17:27.993Z,99717.08
2018-07-12T04:19:55.703Z,99717.80
2018-07-12T04:22:23.137Z,99718.55
2018-07-12T04:24:50.694Z,99724.05
2018-07-12T04:27:18.866Z,99720.89
2018-07-12T04:29:46.307Z,99721.91
2018-07-12T04:32:14.077Z,99722.66
2018-07-12T04:34:41.565Z,99719.44
2018-07-12T04:37:08.941Z,99718.63
2018-07-12T04:39:36.342Z,99718.13
2018-07-12T04:42:03.904Z,99713.07
2018-07-12T04:44:31.576Z,99716.14
2018-07-12T04:46:59.007Z,99716.27
2018-07-12T04:49:26.873Z,99717.06
2018-07-12T04:51:55.541Z,99718.17
2018-07-12T04:54:23.123Z,99718.22
2018-07-12T04:56:50.706Z,99723.70
2018-07-12T04:59:19.055Z,99722.02
2018-07-12T05:01:46.879Z,99721.94
2018-07-12T05:04:14.294Z,99720.81
2018-07-12T05:06:41.692Z,99716.89
2018-07-12T05:09:10.225Z,99718.16
2018-07-12T05:11:37.678Z,99722.64
2018-07-12T05:14:05.074Z,99721.13
2018-07-12T05:16:32.489Z,99723.88
2018-07-12T05:18:59.917Z,99728.87
2018-07-12T05:21:28.358Z,99722.77
2018-07-12T05:23:55.848Z,99725.20
2018-07-12T05:26:23.278Z,99727.43
2018-07-12T05:28:50.969Z,99723.70
2018-07-12T05:31:18.391Z,99729.08
2018-07-12T05:33:45.832Z,99730.59
2018-07-12T05:36:26.525Z,99724.80
2018-07-12T05:38:55.310Z,99720.88
2018-07-12T05:41:23.997Z,99718.48
2018-07-12T05:43:53.012Z,99723.06
2018-07-12T05:46:21.757Z,99728.80
2018-07-12T05:48:50.478Z,99730.50
2018-07-12T05:51:19.233Z,99730.11
2018-07-12T05:53:47.942Z,99733.53
2018-07-12T05:56:16.645Z,99728.30
2018-07-12T05:58:45.681Z,99734.52
2018-07-12T06:02:26.545Z,99725.84
2018-07-12T06:04:55.333Z,99732.49
2018-07-12T06:07:30.377Z,99726.66
2018-07-12T06:09:59.272Z,99722.86
2018-07-12T06:12:27.985Z,99722.42
2018-07-12T06:14:56.682Z,99727.59
2018-07-12T06:17:25.608Z,99731.59
2018-07-12T06:19:54.401Z,99730.03
2018-07-12T06:22:23.212Z,99726.78
2018-07-12T06:24:52.110Z,99723.55
2018-07-12T06:27:20.820Z,99722.38
2018-07-12T06:29:49.574Z,99722.31
2018-07-12T06:32:18.312Z,99727.00
2018-07-12T06:34:47.109Z,99716.59
2018-07-12T06:37:15.927Z,99703.03
2018-07-12T06:39:44.601Z,99702.19
2018-07-12T06:42:13.456Z,99704.21
2018-07-12T06:44:42.171Z,99706.21
2018-07-12T06:47:10.886Z,99701.00
2018-07-12T06:49:39.598Z,99698.18
2018-07-12T06:52:08.348Z,99697.48
2018-07-12T06:54:37.101Z,99694.09
2018-07-12T06:57:05.826Z,99695.25
2018-07-12T06:59:34.561Z,99691.36
2018-07-12T07:02:03.275Z,99692.25
2018-07-12T07:04:31.996Z,99695.41
2018-07-12T07:07:00.821Z,99687.56
2018-07-12T07:09:29.540Z,99692.62
2018-07-12T07:11:58.288Z,99695.95
2018-07-12T07:14:27.077Z,99695.94
2018-07-12T07:16:55.827Z,99694.86
2018-07-12T07:19:24.707Z,99694.15
2018-07-12T07:21:53.434Z,99694.91
2018-07-12T07:24:22.152Z,99693.48
2018-07-12T07:26:52.007Z,99693.94
2018-07-12T07:29:20.858Z,99692.48
2018-07-12T07:31:49.577Z,99691.12
2018-07-12T07:34:18.314Z,99692.44
2018-07-12T07:36:47.034Z,99690.81
2018-07-12T07:39:15.902Z,99686.35
2018-07-12T07:41:44.614Z,99692.06
2018-07-12T07:44:13.321Z,99688.44
2018-07-12T07:46:42.063Z,99685.80
2018-07-12T07:49:10.795Z,99688.33
2018-07-12T07:51:39.603Z,99694.50
2018-07-12T07:54:08.310Z,99686.49
2018-07-12T07:56:37.154Z,99693.66
2018-07-12T07:59:05.845Z,99685.16
2018-07-12T08:01:34.612Z,99690.46
2018-07-12T08:04:03.367Z,99694.75
2018-07-12T08:06:32.107Z,99699.16
2018-07-12T08:09:00.966Z,99695.48
2018-07-12T08:11:29.706Z,99693.97
2018-07-12T08:13:58.506Z,99696.02
2018-07-12T08:16:27.221Z,99691.32
2018-07-12T08:18:55.905Z,99701.94
2018-07-12T08:21:24.770Z,99693.69
2018-07-12T08:23:53.466Z,99706.11
2018-07-12T08:26:22.241Z,99694.59
2018-07-12T08:28:51.101Z,99704.41
2018-07-12T08:31:20.044Z,99712.25
2018-07-12T08:33:48.670Z,99694.98
2018-07-12T08:36:17.422Z,99698.67
2018-07-12T08:38:46.110Z,99698.50
2018-07-12T08:41:14.809Z,99694.30
2018-07-12T08:43:43.544Z,99690.56
2018-07-12T08:46:12.288Z,99694.14
2018-07-12T08:48:40.999Z,99698.73
2018-07-12T08:51:09.701Z,99700.92
2018-07-12T08:53:38.410Z,99699.06
2018-07-12T08:56:07.097Z,99703.30
2018-07-12T08:58:35.794Z,99699.81
2018-07-12T09:01:04.530Z,99699.29
2018-07-12T09:03:33.268Z,99702.17
2018-07-12T09:06:02.013Z,99707.86
2018-07-12T09:08:30.774Z,99713.45
2018-07-12T09:10:59.494Z,99711.80
2018-07-12T09:13:28.189Z,99710.27
2018-07-12T09:15:56.890Z,99707.52
2018-07-12T09:18:25.591Z,99705.42
2018-07-12T09:20:54.333Z,99707.34
2018-07-12T09:23:23.040Z,99703.07
2018-07-12T09:25:51.746Z,99699.99
2018-07-12T09:28:20.483Z,99700.44
2018-07-12T09:30:49.223Z,99695.27
2018-07-12T09:33:17.943Z,99699.99
2018-07-12T09:35:46.855Z,99696.38
2018-07-12T09:38:28.470Z,99695.66
2018-07-12T09:40:57.286Z,99700.92
2018-07-12T09:43:26.100Z,99699.72
2018-07-12T09:45:55.661Z,99700.12
2018-07-12T09:48:24.390Z,99689.03
2018-07-12T09:50:53.141Z,99690.29
2018-07-12T09:53:21.881Z,99688.50
2018-07-12T09:55:50.685Z,99683.00
2018-07-12T09:58:27.754Z,99685.94
2018-07-12T10:01:01.704Z,99685.25
2018-07-12T10:03:35.611Z,99676.84
2018-07-12T10:08:13.107Z,99681.58
2018-07-12T10:10:46.874Z,99677.55
2018-07-12T10:13:20.599Z,99673.77
2018-07-12T10:15:53.450Z,99678.51
2018-07-12T10:18:24.278Z,99679.95
2018-07-12T10:20:53.129Z,99677.17
2018-07-12T10:23:21.842Z,99675.77
2018-07-12T10:25:50.603Z,99672.53
2018-07-12T10:28:19.367Z,99663.47
2018-07-12T10:30:48.520Z,99667.94
2018-07-12T10:33:18.012Z,99664.45
2018-07-12T10:35:47.007Z,99673.55
2018-07-12T10:38:15.757Z,99669.66
2018-07-12T10:40:44.464Z,99668.19
2018-07-12T10:43:13.340Z,99664.34
2018-07-12T10:45:42.624Z,99667.42
2018-07-12T10:48:11.433Z,99668.80
2018-07-12T10:50:40.698Z,99669.44
2018-07-12T10:53:09.822Z,99666.14
2018-07-12T10:55:43.249Z,99670.27
2018-07-12T10:58:13.910Z,99671.53
2018-07-12T11:00:48.517Z,99666.70
2018-07-12T11:03:21.259Z,99656.81
2018-07-12T11:05:52.199Z,99658.95
2018-07-12T11:08:20.962Z,99652.85
2018-07-12T11:10:49.706Z,99653.23
2018-07-12T11:13:20.446Z,99652.13
2018-07-12T11:15:49.214Z,99654.61
2018-07-12T11:18:18.058Z,99649.26
2018-07-12T11:20:46.802Z,99646.98
2018-07-12T11:23:15.506Z,99642.16
2018-07-12T11:25:44.350Z,99647.62
2018-07-12T11:28:13.395Z,99644.86
2018-07-12T11:30:42.139Z,99638.77
2018-07-12T11:33:34.298Z,99641.12
2018-07-12T11:36:03.435Z,99634.30
2018-07-12T11:38:32.351Z,99639.05
2018-07-12T11:41:01.238Z,99633.61
2018-07-12T11:43:30.295Z,99635.55
2018-07-12T11:45:59.366Z,99629.95
2018-07-12T11:48:28.123Z,99637.60
2018-07-12T11:50:56.991Z,99631.57
2018-07-12T11:53:26.355Z,99626.09
2018-07-12T11:55:55.190Z,99621.41
2018-07-12T11:58:24.381Z,99632.45
2018-07-12T12:00:53.669Z,99632.98
2018-07-12T12:03:22.392Z,99624.62
2018-07-12T12:05:51.126Z,99617.03
2018-07-12T12:08:19.867Z,99622.44
2018-07-12T12:10:48.603Z,99620.99
2018-07-12T12:13:17.531Z,99609.41
2018-07-12T12:15:46.263Z,99610.04
2018-07-12T12:18:15.616Z,99608.34
2018-07-12T12:20:44.319Z,99610.25
2018-07-12T12:23:13.055Z,99600.23
2018-07-12T12:25:41.822Z,99610.27
2018-07-12T12:28:10.552Z,99599.58
2018-07-12T12:30:39.266Z,99603.59
2018-07-12T12:33:08.096Z,99605.27
2018-07-12T12:35:36.904Z,99604.60
2018-07-12T12:38:05.781Z,99594.41
2018-07-12T12:40:34.481Z,99579.93
2018-07-12T12:43:03.211Z,99594.84
2018-07-12T12:45:31.910Z,99598.23
2018-07-12T12:48:00.653Z,99593.37
2018-07-12T12:50:29.815Z,99586.25
2018-07-12T12:52:58.553Z,99596.38
2018-07-12T12:55:27.344Z,99590.66
2018-07-12T12:57:56.049Z,99592.16
2018-07-12T13:00:24.769Z,99589.23
2018-07-12T13:02:54.287Z,99583.92
2018-07-12T13:05:23.062Z,99587.45
2018-07-12T13:07:51.787Z,99575.89
2018-07-12T13:10:20.591Z,99588.39
2018-07-12T13:12:49.361Z,99584.04
2018-07-12T13:15:18.217Z,99579.78
2018-07-12T13:17:46.958Z,99579.17
2018-07-12T13:20:16.546Z,99571.94
2018-07-12T13:22:46.581Z,99574.60
2018-07-12T13:25:15.541Z,99565.46
2018-07-12T13:27:44.366Z,99566.56
2018-07-12T13:30:13.129Z,99561.52
2018-07-12T13:32:41.850Z,99566.72
2018-07-12T13:35:10.638Z,99565.55
2018-07-12T13:37:39.386Z,99570.17
2018-07-12T13:40:08.185Z,99566.09
2018-07-12T13:42:36.954Z,99568.11
2018-07-12T13:45:05.707Z,99563.06
2018-07-12T13:47:34.469Z,99557.73
2018-07-12T13:50:03.248Z,99561.72
2018-07-12T13:52:31.981Z,99557.51
2018-07-12T13:55:00.743Z,99558.38
2018-07-12T13:57:29.493Z,99551.59
2018-07-12T13:59:58.283Z,99560.23
2018-07-12T14:02:27.001Z,99521.83
2018-07-12T14:04:55.809Z,99551.87
2018-07-12T14:07:24.567Z,99559.03
2018-07-12T14:09:53.340Z,99554.81
2018-07-12T14:12:22.069Z,99556.95
2018-07-12T14:14:50.804Z,99558.95
2018-07-12T14:17:19.579Z,99555.20
2018-07-12T14:19:48.326Z,99546.95
2018-07-12T14:22:17.058Z,99555.91
2018-07-12T14:24:45.799Z,99554.95
2018-07-12T14:27:14.679Z,99546.48
2018-07-12T14:29:43.319Z,99547.37
2018-07-12T14:32:12.089Z,99547.80
2018-07-12T14:34:40.823Z,99545.69
2018-07-12T14:37:09.551Z,99537.73
2018-07-12T14:39:38.326Z,99540.38
2018-07-12T14:42:07.089Z,99535.99
2018-07-12T14:44:35.834Z,99537.88
2018-07-12T14:47:04.681Z,99535.55
2018-07-12T14:49:33.366Z,99537.30
2018-07-12T14:52:02.181Z,99532.47
2018-07-12T14:54:30.980Z,99541.31
2018-07-12T14:56:59.703Z,99527.45
2018-07-12T14:59:28.452Z,99537.07
2018-07-12T15:01:57.226Z,99531.90
2018-07-12T15:04:26.121Z,99536.05
2018-07-12T15:06:54.942Z,99532.95
2018-07-12T15:09:23.825Z,99536.09
2018-07-12T15:11:52.496Z,99537.33
2018-07-12T15:14:21.257Z,99528.58
2018-07-12T15:16:50.067Z,99531.84
2018-07-12T15:19:18.898Z,99531.62
2018-07-12T15:21:47.642Z,99522.48
2018-07-12T15:24:16.446Z,99528.23
2018-07-12T15:26:45.199Z,99528.94
2018-07-12T15:29:14.055Z,99528.13
2018-07-12T15:31:42.842Z,99524.88
2018-07-12T15:34:11.561Z,99528.30
2018-07-12T15:36:40.282Z,99522.25
2018-07-12T15:39:09.285Z,99523.33
2018-07-12T15:41:38.646Z,99523.55
2018-07-12T15:44:07.444Z,99526.13
2018-07-12T15:46:36.176Z,99524.78
2018-07-12T15:49:05.070Z,99523.94
2018-07-12T15:51:33.914Z,99529.19
2018-07-12T15:54:02.650Z,99530.88
2018-07-12T15:56:31.397Z,99525.92
2018-07-12T15:59:00.126Z,99524.69
2018-07-12T16:01:28.869Z,99526.88
2018-07-12T16:03:57.622Z,99528.52
2018-07-12T16:06:32.795Z,99528.66
2018-07-12T16:09:01.625Z,99536.06
2018-07-12T16:11:30.351Z,99528.20
2018-07-12T16:13:59.116Z,99534.25
2018-07-12T16:16:27.895Z,99536.83
2018-07-12T16:18:56.665Z,99538.25
2018-07-12T16:21:25.497Z,99531.95
2018-07-12T16:23:54.271Z,99533.44
2018-07-12T16:26:23.045Z,99531.76
2018-07-12T16:28:51.794Z,99531.89
2018-07-12T16:31:20.526Z,99535.52
2018-07-12T16:33:49.383Z,99532.31
2018-07-12T16:36:18.236Z,99534.55
2018-07-12T16:38:46.990Z,99534.06
2018-07-12T16:41:15.788Z,99544.25
2018-07-12T16:43:44.519Z,99541.73
2018-07-12T16:46:13.303Z,99546.61
2018-07-12T16:48:42.058Z,99541.91
2018-07-12T16:51:10.808Z,99538.72
2018-07-12T16:53:39.607Z,99541.34
2018-07-12T16:56:08.438Z,99550.11
2018-07-12T16:58:37.158Z,99546.98
2018-07-12T17:01:05.943Z,99550.31
2018-07-12T17:03:34.725Z,99546.59
2018-07-12T17:06:03.522Z,99553.94
2018-07-12T17:08:32.326Z,99548.95
2018-07-12T17:11:01.129Z,99547.61
2018-07-12T17:13:29.883Z,99549.95
2018-07-12T17:15:58.629Z,99547.70
2018-07-12T17:18:27.435Z,99554.98
2018-07-12T17:20:56.167Z,99548.98
2018-07-12T17:23:24.975Z,99552.23
2018-07-12T17:25:53.859Z,99554.66
2018-07-12T17:28:22.603Z,99550.55
2018-07-12T17:30:51.371Z,99548.37
2018-07-12T17:33:20.092Z,99549.37
2018-07-12T17:35:48.824Z,99549.19
2018-07-12T17:38:17.555Z,99542.76
2018-07-12T17:40:46.273Z,99549.27
2018-07-12T17:43:15.048Z,99547.11
2018-07-12T17:45:43.781Z,99550.67
2018-07-12T17:48:12.530Z,99551.58
2018-07-12T17:50:41.258Z,99557.47
2018-07-12T17:53:10.042Z,99558.64
2018-07-12T17:55:38.847Z,99559.34
2018-07-12T17:58:07.583Z,99557.22
2018-07-12T18:00:36.383Z,99563.26
2018-07-12T18:03:05.130Z,99565.71
2018-07-12T18:05:33.951Z,99573.22
2018-07-12T18:08:02.708Z,99578.60
2018-07-12T18:10:31.441Z,99573.63
2018-07-12T18:13:00.183Z,99583.44
2018-07-12T18:15:28.979Z,99587.16
2018-07-12T18:17:57.784Z,99581.03
2018-07-12T18:20:26.555Z,99583.70
2018-07-12T18:22:55.309Z,99587.09
2018-07-12T18:25:24.037Z,99591.41
2018-07-12T18:27:52.871Z,99594.09
2018-07-12T18:30:21.590Z,99596.64
2018-07-12T18:32:50.333Z,99594.58
2018-07-12T18:35:19.150Z,99597.59
2018-07-12T18:37:47.865Z,99596.48
2018-07-12T18:40:16.640Z,99598.45
2018-07-12T18:42:45.379Z,99605.19
2018-07-12T18:45:14.107Z,99605.66
2018-07-12T18:47:42.848Z,99608.98
2018-07-12T18:50:11.595Z,99614.28
2018-07-12T18:52:40.335Z,99614.70
2018-07-12T18:55:09.103Z,99618.41
2018-07-12T18:57:37.919Z,99616.14
2018-07-12T19:00:06.678Z,99626.53
2018-07-12T19:02:35.529Z,99627.93
2018-07-12T19:05:04.246Z,99629.70
2018-07-12T19:07:33.028Z,99621.22
2018-07-12T19:10:01.791Z,99633.93
2018-07-12T19:12:30.521Z,99629.67
2018-07-12T19:14:59.322Z,99632.43
2018-07-12T19:17:28.053Z,99635.62
2018-07-12T19:19:56.783Z,99638.19
2018-07-12T19:22:25.594Z,99638.13
2018-07-12T19:24:54.351Z,99633.78
2018-07-12T19:27:23.118Z,99636.20
2018-07-12T19:29:51.926Z,99639.83
2018-07-12T19:32:20.670Z,99643.50
2018-07-12T19:34:49.440Z,99641.13
2018-07-12T19:37:18.179Z,99636.61
2018-07-12T19:39:46.909Z,99648.75
2018-07-12T19:42:15.612Z,99644.22
2018-07-12T19:44:44.333Z,99646.75
2018-07-12T19:47:13.161Z,99647.75
2018-07-12T19:49:41.880Z,99654.91
2018-07-12T19:52:10.637Z,99647.32
2018-07-12T19:54:39.467Z,99645.72
2018-07-12T19:57:08.293Z,99650.42
2018-07-12T19:59:37.019Z,99654.83
2018-07-12T20:02:05.769Z,99651.59
2018-07-12T20:04:34.481Z,99653.50
2018-07-12T20:07:03.395Z,99658.44
2018-07-12T20:09:32.117Z,99662.04
2018-07-12T20:12:00.901Z,99649.63
2018-07-12T20:14:29.622Z,99663.26
2018-07-12T20:16:58.341Z,99665.44
2018-07-12T20:19:27.110Z,99670.34
2018-07-12T20:21:56.822Z,99668.22
2018-07-12T20:24:25.777Z,99675.10
2018-07-12T20:26:54.530Z,99677.52
2018-07-12T20:29:23.300Z,99682.18
2018-07-12T20:31:52.046Z,99675.95
2018-07-12T20:34:20.823Z,99676.02
2018-07-12T20:36:49.626Z,99681.77
2018-07-12T20:39:18.611Z,99680.41
2018-07-12T20:41:47.361Z,99682.08
2018-07-12T20:44:16.107Z,99677.97
2018-07-12T20:46:44.875Z,99683.58
2018-07-12T20:49:13.669Z,99683.04
2018-07-12T20:51:42.429Z,99683.84
2018-07-12T20:54:11.320Z,99689.30
2018-07-12T20:56:40.075Z,99682.02
2018-07-12T20:59:08.795Z,99686.06
2018-07-12T21:01:37.505Z,99686.36
2018-07-12T21:04:06.245Z,99686.11
2018-07-12T21:06:34.969Z,99684.83
2018-07-12T21:09:04.230Z,99685.78
2018-07-12T21:11:32.953Z,99688.56
2018-07-12T21:14:01.657Z,99693.80
2018-07-12T21:16:30.405Z,99690.59
2018-07-12T21:18:59.126Z,99692.55
2018-07-12T21:21:27.893Z,99690.72
2018-07-12T21:23:56.714Z,99693.95
2018-07-12T21:26:25.454Z,99686.63
2018-07-12T21:28:54.183Z,99689.91
2018-07-12T21:31:23.012Z,99685.27
2018-07-12T21:33:51.725Z,99681.22
2018-07-12T21:36:20.436Z,99687.48
2018-07-12T21:38:49.137Z,99685.59
2018-07-12T21:41:17.853Z,99692.22
2018-07-12T21:43:46.553Z,99687.91
2018-07-12T21:46:15.269Z,99686.29
2018-07-12T21:48:43.978Z,99684.48
2018-07-12T21:51:12.706Z,99689.44
2018-07-12T21:53:41.432Z,99690.53
2018-07-12T21:56:10.136Z,99690.59
2018-07-12T21:58:38.982Z,99690.36
2018-07-12T22:01:07.708Z,99696.61
2018-07-12T22:03:36.415Z,99697.14
2018-07-12T22:06:05.148Z,99686.80
2018-07-12T22:08:33.886Z,99684.91
2018-07-12T22:11:03.986Z,99676.25
2018-07-12T22:13:33.868Z,99680.88
2018-07-12T22:16:02.742Z,99676.02
2018-07-12T22:18:31.511Z,99677.38
2018-07-12T22:21:00.288Z,99678.19
2018-07-12T22:23:29.012Z,99671.67
2018-07-12T22:25:57.734Z,99666.23
2018-07-12T22:28:26.535Z,99666.52
2018-07-12T22:30:55.287Z,99664.31
2018-07-12T22:33:23.984Z,99663.77
2018-07-12T22:35:52.698Z,99662.17
2018-07-12T22:38:21.442Z,99660.02
2018-07-12T22:40:50.148Z,99657.02
2018-07-12T22:43:18.915Z,99660.00
2018-07-12T22:45:47.642Z,99656.20
2018-07-12T22:48:16.394Z,99655.12
2018-07-12T22:50:45.122Z,99654.63
2018-07-12T22:53:13.833Z,99658.97
2018-07-12T22:55:42.680Z,99659.28
2018-07-12T22:58:11.414Z,99653.58
2018-07-12T23:00:40.219Z,99662.00
2018-07-12T23:03:08.960Z,99661.22
2018-07-12T23:05:37.724Z,99655.80
2018-07-12T23:08:06.526Z,99657.41
2018-07-12T23:10:35.230Z,99652.00
2018-07-12T23:13:03.965Z,99649.02
2018-07-12T23:15:32.698Z,99650.95
2018-07-12T23:18:01.419Z,99656.66
2018-07-12T23:20:30.176Z,99658.06
2018-07-12T23:22:58.915Z,99652.89
2018-07-12T23:25:27.682Z,99653.42
2018-07-12T23:27:56.544Z,99652.88
2018-07-12T23:30:25.283Z,99658.02
2018-07-12T23:32:54.224Z,99655.28
2018-07-12T23:35:29.149Z,99661.00
2018-07-12T23:37:57.933Z,99666.45
2018-07-12T23:40:26.733Z,99666.73
2018-07-12T23:42:55.504Z,99661.30
2018-07-12T23:45:24.315Z,99671.13
2018-07-12T23:47:52.984Z,99666.48
2018-07-12T23:50:21.865Z,99665.44
2018-07-12T23:52:50.574Z,99666.50
2018-07-12T23:55:19.296Z,99662.98
2018-07-12T23:57:48.026Z,99658.64
